LIMC/MXP METAR and TAF weather

Enter ICAO airport designator
Station Type Date Time Source
LIMC METAR 2019/12/08 03:50 UTC NOAA

LIMC 080350Z 33004KT 4000 BR BKN033 02/02 Q1020 NOSIG


Station Type Date Time Source
LIMC Decoded METAR 2019/12/08 03:50 UTC NOAA

Milano / Malpensa, Italy (LIMC) 45-37N 008-44E 211M
Dec 07, 2019 - 10:50 PM EST / 2019.12.08 0350 UTC
Wind: from the NNW (330 degrees) at 5 MPH (4 KT):0
Visibility: 2 mile(s):0
Sky conditions: mostly cloudy
Weather: mist
Temperature: 35 F (2 C)
Windchill: 30 F (-1 C):1
Dew Point: 35 F (2 C)
Relative Humidity: 100%
Pressure (altimeter): 30.12 in. Hg (1020 hPa)
ob: LIMC 080350Z 33004KT 4000 BR BKN033 02/02 Q1020 NOSIG
cycle: 4

Station Type Date Time Source
LIMC TAF 2019/12/07 18:21 UTC NOAA

TAF LIMC 071700Z 0718/0824 VRB05KT CAVOK
TEMPO 0800/0808 3000 BCFG
BECMG 0812/0815 3500 BR BKN012 BKN040
TEMPO 0818/0824 DZ

Example: see airport list